sensor_id;sensor_type;location;lat;lon;timestamp;P1;durP1;ratioP1;P2;durP2;ratioP2
61785;SDS011;47692;53.714;11.372;2023-10-19T00:01:55;12.43;;;5.10;;
61785;SDS011;47692;53.714;11.372;2023-10-19T00:04:21;9.63;;;5.10;;
61785;SDS011;47692;53.714;11.372;2023-10-19T00:06:47;9.77;;;4.90;;
61785;SDS011;47692;53.714;11.372;2023-10-19T00:09:14;13.13;;;4.97;;
61785;SDS011;47692;53.714;11.372;2023-10-19T00:11:40;8.48;;;4.80;;
61785;SDS011;47692;53.714;11.372;2023-10-19T00:14:06;9.65;;;4.43;;
61785;SDS011;47692;53.714;11.372;2023-10-19T00:16:42;8.05;;;4.82;;
61785;SDS011;47692;53.714;11.372;2023-10-19T00:19:18;8.60;;;4.47;;
61785;SDS011;47692;53.714;11.372;2023-10-19T00:21:45;9.02;;;4.80;;
61785;SDS011;47692;53.714;11.372;2023-10-19T00:24:19;8.68;;;4.60;;
61785;SDS011;47692;53.714;11.372;2023-10-19T00:26:47;8.00;;;4.63;;
61785;SDS011;47692;53.714;11.372;2023-10-19T00:29:13;11.05;;;5.05;;
61785;SDS011;47692;53.714;11.372;2023-10-19T00:31:55;10.00;;;5.03;;
61785;SDS011;47692;53.714;11.372;2023-10-19T00:34:21;10.05;;;4.70;;
61785;SDS011;47692;53.714;11.372;2023-10-19T00:36:47;9.70;;;5.10;;
61785;SDS011;47692;53.714;11.372;2023-10-19T00:39:13;9.10;;;4.68;;
61785;SDS011;47692;53.714;11.372;2023-10-19T00:41:49;7.82;;;4.30;;
61785;SDS011;47692;53.714;11.372;2023-10-19T00:44:15;10.32;;;5.32;;
61785;SDS011;47692;53.714;11.372;2023-10-19T00:47:03;10.60;;;5.50;;
61785;SDS011;47692;53.714;11.372;2023-10-19T00:49:32;10.73;;;5.28;;
61785;SDS011;47692;53.714;11.372;2023-10-19T00:51:58;9.70;;;4.97;;
61785;SDS011;47692;53.714;11.372;2023-10-19T00:54:34;10.52;;;5.68;;
61785;SDS011;47692;53.714;11.372;2023-10-19T00:57:02;10.73;;;5.30;;
61785;SDS011;47692;53.714;11.372;2023-10-19T00:59:33;12.02;;;5.40;;
61785;SDS011;47692;53.714;11.372;2023-10-19T01:02:03;12.48;;;5.63;;
61785;SDS011;47692;53.714;11.372;2023-10-19T01:04:44;10.85;;;5.60;;
61785;SDS011;47692;53.714;11.372;2023-10-19T01:07:11;10.90;;;6.13;;
61785;SDS011;47692;53.714;11.372;2023-10-19T01:09:40;11.75;;;5.75;;
61785;SDS011;47692;53.714;11.372;2023-10-19T01:12:09;12.07;;;5.97;;
61785;SDS011;47692;53.714;11.372;2023-10-19T01:15:06;11.38;;;6.32;;
61785;SDS011;47692;53.714;11.372;2023-10-19T01:17:50;11.60;;;6.65;;
61785;SDS011;47692;53.714;11.372;2023-10-19T01:20:28;10.27;;;6.18;;
61785;SDS011;47692;53.714;11.372;2023-10-19T01:22:55;12.35;;;6.53;;
61785;SDS011;47692;53.714;11.372;2023-10-19T01:28:21;10.60;;;6.38;;
61785;SDS011;47692;53.714;11.372;2023-10-19T01:30:50;16.33;;;7.35;;
61785;SDS011;47692;53.714;11.372;2023-10-19T01:33:16;11.20;;;6.22;;
61785;SDS011;47692;53.714;11.372;2023-10-19T01:35:45;12.50;;;7.07;;
61785;SDS011;47692;53.714;11.372;2023-10-19T01:38:36;12.57;;;6.33;;
61785;SDS011;47692;53.714;11.372;2023-10-19T01:41:06;14.05;;;7.15;;
61785;SDS011;47692;53.714;11.372;2023-10-19T01:43:42;17.30;;;6.95;;
61785;SDS011;47692;53.714;11.372;2023-10-19T01:46:09;14.38;;;7.57;;
61785;SDS011;47692;53.714;11.372;2023-10-19T01:48:57;14.63;;;6.80;;
61785;SDS011;47692;53.714;11.372;2023-10-19T01:51:23;13.38;;;7.28;;
61785;SDS011;47692;53.714;11.372;2023-10-19T01:53:53;12.98;;;6.95;;
61785;SDS011;47692;53.714;11.372;2023-10-19T01:56:20;16.25;;;6.75;;
61785;SDS011;47692;53.714;11.372;2023-10-19T01:58:47;12.65;;;7.10;;
61785;SDS011;47692;53.714;11.372;2023-10-19T02:01:13;14.05;;;7.63;;
61785;SDS011;47692;53.714;11.372;2023-10-19T02:03:40;15.48;;;7.63;;
61785;SDS011;47692;53.714;11.372;2023-10-19T02:06:07;14.52;;;6.90;;
61785;SDS011;47692;53.714;11.372;2023-10-19T02:08:52;13.13;;;6.97;;
61785;SDS011;47692;53.714;11.372;2023-10-19T02:11:25;12.43;;;7.53;;
61785;SDS011;47692;53.714;11.372;2023-10-19T02:13:54;14.88;;;7.30;;
61785;SDS011;47692;53.714;11.372;2023-10-19T02:16:24;12.18;;;7.32;;
61785;SDS011;47692;53.714;11.372;2023-10-19T02:18:51;15.25;;;7.95;;
61785;SDS011;47692;53.714;11.372;2023-10-19T02:21:17;12.88;;;6.95;;
61785;SDS011;47692;53.714;11.372;2023-10-19T02:23:52;13.48;;;7.18;;
61785;SDS011;47692;53.714;11.372;2023-10-19T02:26:18;15.43;;;8.43;;
61785;SDS011;47692;53.714;11.372;2023-10-19T02:28:45;14.57;;;7.70;;
61785;SDS011;47692;53.714;11.372;2023-10-19T02:31:11;17.55;;;7.90;;
61785;SDS011;47692;53.714;11.372;2023-10-19T02:33:41;12.80;;;7.95;;
61785;SDS011;47692;53.714;11.372;2023-10-19T02:36:11;14.95;;;7.05;;
61785;SDS011;47692;53.714;11.372;2023-10-19T02:38:38;11.95;;;7.20;;
61785;SDS011;47692;53.714;11.372;2023-10-19T02:41:05;15.15;;;7.05;;
61785;SDS011;47692;53.714;11.372;2023-10-19T02:43:30;14.18;;;7.65;;
61785;SDS011;47692;53.714;11.372;2023-10-19T02:45:58;14.55;;;7.32;;
61785;SDS011;47692;53.714;11.372;2023-10-19T02:48:24;13.32;;;7.40;;
61785;SDS011;47692;53.714;11.372;2023-10-19T02:50:50;14.32;;;7.75;;
61785;SDS011;47692;53.714;11.372;2023-10-19T02:53:15;13.45;;;6.80;;
61785;SDS011;47692;53.714;11.372;2023-10-19T02:55:43;16.20;;;7.60;;
61785;SDS011;47692;53.714;11.372;2023-10-19T02:58:09;14.27;;;7.13;;
61785;SDS011;47692;53.714;11.372;2023-10-19T03:00:36;15.00;;;7.13;;
61785;SDS011;47692;53.714;11.372;2023-10-19T03:03:02;13.73;;;6.78;;
61785;SDS011;47692;53.714;11.372;2023-10-19T03:05:30;13.40;;;7.00;;
61785;SDS011;47692;53.714;11.372;2023-10-19T03:07:55;14.32;;;7.32;;
61785;SDS011;47692;53.714;11.372;2023-10-19T03:10:21;13.45;;;7.28;;
61785;SDS011;47692;53.714;11.372;2023-10-19T03:12:59;11.70;;;6.97;;
61785;SDS011;47692;53.714;11.372;2023-10-19T03:15:26;9.93;;;6.32;;
61785;SDS011;47692;53.714;11.372;2023-10-19T03:17:54;12.55;;;6.85;;
61785;SDS011;47692;53.714;11.372;2023-10-19T03:20:20;15.00;;;6.35;;
61785;SDS011;47692;53.714;11.372;2023-10-19T03:22:48;14.82;;;6.72;;
61785;SDS011;47692;53.714;11.372;2023-10-19T03:25:14;12.05;;;6.50;;
61785;SDS011;47692;53.714;11.372;2023-10-19T03:27:59;12.65;;;6.82;;
61785;SDS011;47692;53.714;11.372;2023-10-19T03:30:33;12.82;;;6.72;;
61785;SDS011;47692;53.714;11.372;2023-10-19T03:33:03;15.40;;;7.25;;
61785;SDS011;47692;53.714;11.372;2023-10-19T03:35:29;13.27;;;6.90;;
61785;SDS011;47692;53.714;11.372;2023-10-19T03:37:55;16.88;;;7.10;;
61785;SDS011;47692;53.714;11.372;2023-10-19T03:40:23;13.95;;;7.15;;
61785;SDS011;47692;53.714;11.372;2023-10-19T03:42:57;13.05;;;6.88;;
61785;SDS011;47692;53.714;11.372;2023-10-19T03:45:23;12.95;;;6.03;;
61785;SDS011;47692;53.714;11.372;2023-10-19T03:47:50;16.77;;;7.43;;
61785;SDS011;47692;53.714;11.372;2023-10-19T03:50:18;16.65;;;7.18;;
61785;SDS011;47692;53.714;11.372;2023-10-19T03:52:47;13.55;;;6.50;;
61785;SDS011;47692;53.714;11.372;2023-10-19T03:55:12;12.40;;;6.40;;
61785;SDS011;47692;53.714;11.372;2023-10-19T03:57:43;13.10;;;7.13;;
61785;SDS011;47692;53.714;11.372;2023-10-19T04:00:12;13.15;;;6.35;;
61785;SDS011;47692;53.714;11.372;2023-10-19T04:02:44;16.00;;;6.93;;
61785;SDS011;47692;53.714;11.372;2023-10-19T04:05:09;11.82;;;6.68;;
61785;SDS011;47692;53.714;11.372;2023-10-19T04:07:40;13.10;;;6.88;;
61785;SDS011;47692;53.714;11.372;2023-10-19T04:10:06;12.73;;;6.47;;
61785;SDS011;47692;53.714;11.372;2023-10-19T04:12:32;14.55;;;7.25;;
61785;SDS011;47692;53.714;11.372;2023-10-19T04:15:00;13.80;;;7.63;;
61785;SDS011;47692;53.714;11.372;2023-10-19T04:17:39;12.13;;;6.30;;
61785;SDS011;47692;53.714;11.372;2023-10-19T04:20:05;13.32;;;7.18;;
61785;SDS011;47692;53.714;11.372;2023-10-19T04:22:47;13.13;;;6.65;;
61785;SDS011;47692;53.714;11.372;2023-10-19T04:25:14;13.63;;;6.90;;
61785;SDS011;47692;53.714;11.372;2023-10-19T04:27:44;12.32;;;6.68;;
61785;SDS011;47692;53.714;11.372;2023-10-19T04:30:13;12.18;;;7.22;;
61785;SDS011;47692;53.714;11.372;2023-10-19T04:32:46;12.98;;;7.53;;
61785;SDS011;47692;53.714;11.372;2023-10-19T04:35:12;12.68;;;6.65;;
61785;SDS011;47692;53.714;11.372;2023-10-19T04:37:39;12.73;;;6.97;;
61785;SDS011;47692;53.714;11.372;2023-10-19T04:40:09;15.68;;;8.15;;
61785;SDS011;47692;53.714;11.372;2023-10-19T04:42:36;12.68;;;7.30;;
61785;SDS011;47692;53.714;11.372;2023-10-19T04:45:02;18.30;;;8.60;;
61785;SDS011;47692;53.714;11.372;2023-10-19T04:47:28;13.45;;;7.68;;
61785;SDS011;47692;53.714;11.372;2023-10-19T04:49:53;13.32;;;6.40;;
61785;SDS011;47692;53.714;11.372;2023-10-19T04:52:19;12.27;;;6.20;;
61785;SDS011;47692;53.714;11.372;2023-10-19T04:54:44;13.75;;;7.20;;
61785;SDS011;47692;53.714;11.372;2023-10-19T04:57:09;18.15;;;9.05;;
61785;SDS011;47692;53.714;11.372;2023-10-19T04:59:36;19.00;;;9.40;;
61785;SDS011;47692;53.714;11.372;2023-10-19T05:02:01;14.60;;;7.40;;
61785;SDS011;47692;53.714;11.372;2023-10-19T05:04:29;25.45;;;11.32;;
61785;SDS011;47692;53.714;11.372;2023-10-19T05:06:55;16.15;;;8.40;;
61785;SDS011;47692;53.714;11.372;2023-10-19T05:09:20;16.95;;;7.88;;
61785;SDS011;47692;53.714;11.372;2023-10-19T05:11:46;15.90;;;7.35;;
61785;SDS011;47692;53.714;11.372;2023-10-19T05:14:12;16.58;;;8.35;;
61785;SDS011;47692;53.714;11.372;2023-10-19T05:16:40;14.02;;;7.53;;
61785;SDS011;47692;53.714;11.372;2023-10-19T05:19:06;12.48;;;6.90;;
61785;SDS011;47692;53.714;11.372;2023-10-19T05:21:31;15.07;;;7.63;;
61785;SDS011;47692;53.714;11.372;2023-10-19T05:23:57;15.57;;;7.90;;
61785;SDS011;47692;53.714;11.372;2023-10-19T05:26:25;13.93;;;7.72;;
61785;SDS011;47692;53.714;11.372;2023-10-19T05:28:51;14.38;;;7.75;;
61785;SDS011;47692;53.714;11.372;2023-10-19T05:31:16;16.48;;;8.70;;
61785;SDS011;47692;53.714;11.372;2023-10-19T05:33:41;16.27;;;8.80;;
61785;SDS011;47692;53.714;11.372;2023-10-19T05:36:07;19.73;;;9.55;;
61785;SDS011;47692;53.714;11.372;2023-10-19T05:38:32;16.33;;;8.40;;
61785;SDS011;47692;53.714;11.372;2023-10-19T05:40:57;13.55;;;7.05;;
61785;SDS011;47692;53.714;11.372;2023-10-19T05:43:24;15.63;;;7.45;;
61785;SDS011;47692;53.714;11.372;2023-10-19T05:45:50;12.90;;;7.22;;
61785;SDS011;47692;53.714;11.372;2023-10-19T05:48:16;15.88;;;8.40;;
61785;SDS011;47692;53.714;11.372;2023-10-19T05:50:42;14.63;;;7.47;;
61785;SDS011;47692;53.714;11.372;2023-10-19T05:53:07;13.65;;;7.57;;
61785;SDS011;47692;53.714;11.372;2023-10-19T05:55:33;20.52;;;10.82;;
61785;SDS011;47692;53.714;11.372;2023-10-19T05:58:00;15.07;;;7.15;;
61785;SDS011;47692;53.714;11.372;2023-10-19T06:00:29;16.05;;;7.13;;
61785;SDS011;47692;53.714;11.372;2023-10-19T06:02:55;13.20;;;6.80;;
61785;SDS011;47692;53.714;11.372;2023-10-19T06:05:22;15.18;;;7.88;;
61785;SDS011;47692;53.714;11.372;2023-10-19T06:07:50;15.73;;;7.80;;
61785;SDS011;47692;53.714;11.372;2023-10-19T06:10:16;16.92;;;8.07;;
61785;SDS011;47692;53.714;11.372;2023-10-19T06:12:43;11.75;;;7.15;;
61785;SDS011;47692;53.714;11.372;2023-10-19T06:15:10;14.48;;;6.93;;
61785;SDS011;47692;53.714;11.372;2023-10-19T06:17:39;12.55;;;6.68;;
61785;SDS011;47692;53.714;11.372;2023-10-19T06:20:07;13.82;;;7.70;;
61785;SDS011;47692;53.714;11.372;2023-10-19T06:22:34;14.57;;;8.05;;
61785;SDS011;47692;53.714;11.372;2023-10-19T06:25:00;14.13;;;6.70;;
61785;SDS011;47692;53.714;11.372;2023-10-19T06:27:26;13.07;;;7.13;;
61785;SDS011;47692;53.714;11.372;2023-10-19T06:29:52;13.52;;;7.60;;
61785;SDS011;47692;53.714;11.372;2023-10-19T06:32:18;16.50;;;8.50;;
61785;SDS011;47692;53.714;11.372;2023-10-19T06:34:43;13.10;;;6.63;;
61785;SDS011;47692;53.714;11.372;2023-10-19T06:37:08;13.00;;;6.88;;
61785;SDS011;47692;53.714;11.372;2023-10-19T06:39:35;14.68;;;7.22;;
61785;SDS011;47692;53.714;11.372;2023-10-19T06:42:05;12.40;;;6.55;;
61785;SDS011;47692;53.714;11.372;2023-10-19T06:44:34;17.45;;;7.80;;
61785;SDS011;47692;53.714;11.372;2023-10-19T06:46:59;12.10;;;6.45;;
61785;SDS011;47692;53.714;11.372;2023-10-19T06:49:24;12.48;;;6.97;;
61785;SDS011;47692;53.714;11.372;2023-10-19T06:51:50;13.00;;;6.28;;
61785;SDS011;47692;53.714;11.372;2023-10-19T06:54:15;11.90;;;6.38;;
61785;SDS011;47692;53.714;11.372;2023-10-19T06:56:41;13.80;;;7.18;;
61785;SDS011;47692;53.714;11.372;2023-10-19T06:59:06;13.18;;;6.35;;
61785;SDS011;47692;53.714;11.372;2023-10-19T07:01:32;10.70;;;6.13;;
61785;SDS011;47692;53.714;11.372;2023-10-19T07:03:57;13.40;;;6.63;;
61785;SDS011;47692;53.714;11.372;2023-10-19T07:06:23;13.85;;;6.93;;
61785;SDS011;47692;53.714;11.372;2023-10-19T07:08:49;15.18;;;8.00;;
61785;SDS011;47692;53.714;11.372;2023-10-19T07:11:14;13.40;;;6.50;;
61785;SDS011;47692;53.714;11.372;2023-10-19T07:13:39;15.88;;;6.93;;
61785;SDS011;47692;53.714;11.372;2023-10-19T07:16:05;12.15;;;6.72;;
61785;SDS011;47692;53.714;11.372;2023-10-19T07:18:31;13.50;;;6.85;;
61785;SDS011;47692;53.714;11.372;2023-10-19T07:20:56;13.55;;;6.88;;
61785;SDS011;47692;53.714;11.372;2023-10-19T07:23:28;14.48;;;6.80;;
61785;SDS011;47692;53.714;11.372;2023-10-19T07:25:54;9.98;;;5.82;;
61785;SDS011;47692;53.714;11.372;2023-10-19T07:28:21;12.85;;;6.80;;
61785;SDS011;47692;53.714;11.372;2023-10-19T07:30:47;11.52;;;6.47;;
61785;SDS011;47692;53.714;11.372;2023-10-19T07:33:13;16.70;;;6.38;;
61785;SDS011;47692;53.714;11.372;2023-10-19T07:35:42;15.02;;;6.20;;
61785;SDS011;47692;53.714;11.372;2023-10-19T07:38:12;12.65;;;6.88;;
61785;SDS011;47692;53.714;11.372;2023-10-19T07:40:38;13.10;;;6.45;;
61785;SDS011;47692;53.714;11.372;2023-10-19T07:43:04;11.35;;;5.68;;
61785;SDS011;47692;53.714;11.372;2023-10-19T07:45:30;10.75;;;6.55;;
61785;SDS011;47692;53.714;11.372;2023-10-19T07:47:59;10.82;;;6.32;;
61785;SDS011;47692;53.714;11.372;2023-10-19T07:50:31;12.68;;;5.95;;
61785;SDS011;47692;53.714;11.372;2023-10-19T07:52:58;12.23;;;6.18;;
61785;SDS011;47692;53.714;11.372;2023-10-19T07:55:23;11.15;;;5.40;;
61785;SDS011;47692;53.714;11.372;2023-10-19T07:57:49;9.18;;;5.93;;
61785;SDS011;47692;53.714;11.372;2023-10-19T08:00:15;10.80;;;6.22;;
61785;SDS011;47692;53.714;11.372;2023-10-19T08:02:42;13.25;;;6.75;;
61785;SDS011;47692;53.714;11.372;2023-10-19T08:05:13;11.82;;;5.95;;
61785;SDS011;47692;53.714;11.372;2023-10-19T08:07:40;12.05;;;5.82;;
61785;SDS011;47692;53.714;11.372;2023-10-19T08:10:10;11.27;;;6.10;;
61785;SDS011;47692;53.714;11.372;2023-10-19T08:12:36;11.15;;;5.68;;
61785;SDS011;47692;53.714;11.372;2023-10-19T08:15:03;12.45;;;7.00;;
61785;SDS011;47692;53.714;11.372;2023-10-19T08:17:31;14.13;;;6.70;;
61785;SDS011;47692;53.714;11.372;2023-10-19T08:19:58;12.13;;;6.72;;
61785;SDS011;47692;53.714;11.372;2023-10-19T08:22:27;12.60;;;5.85;;
61785;SDS011;47692;53.714;11.372;2023-10-19T08:24:52;11.57;;;6.80;;
61785;SDS011;47692;53.714;11.372;2023-10-19T08:27:17;13.65;;;7.18;;
61785;SDS011;47692;53.714;11.372;2023-10-19T08:29:43;12.52;;;6.38;;
61785;SDS011;47692;53.714;11.372;2023-10-19T08:32:08;14.80;;;6.93;;
61785;SDS011;47692;53.714;11.372;2023-10-19T08:34:34;14.80;;;6.47;;
61785;SDS011;47692;53.714;11.372;2023-10-19T08:37:03;11.80;;;6.72;;
61785;SDS011;47692;53.714;11.372;2023-10-19T08:39:31;15.05;;;6.65;;
61785;SDS011;47692;53.714;11.372;2023-10-19T08:42:03;10.80;;;6.30;;
61785;SDS011;47692;53.714;11.372;2023-10-19T08:44:29;11.63;;;6.50;;
61785;SDS011;47692;53.714;11.372;2023-10-19T08:46:55;12.27;;;6.30;;
61785;SDS011;47692;53.714;11.372;2023-10-19T08:49:22;15.57;;;7.30;;
61785;SDS011;47692;53.714;11.372;2023-10-19T08:51:48;14.68;;;6.72;;
61785;SDS011;47692;53.714;11.372;2023-10-19T08:54:16;13.98;;;6.78;;
61785;SDS011;47692;53.714;11.372;2023-10-19T08:56:42;12.00;;;6.75;;
61785;SDS011;47692;53.714;11.372;2023-10-19T08:59:09;13.50;;;6.28;;
61785;SDS011;47692;53.714;11.372;2023-10-19T09:01:40;15.15;;;7.18;;
61785;SDS011;47692;53.714;11.372;2023-10-19T09:04:12;12.32;;;6.75;;
61785;SDS011;47692;53.714;11.372;2023-10-19T09:06:41;14.02;;;7.38;;
61785;SDS011;47692;53.714;11.372;2023-10-19T09:09:10;13.50;;;7.63;;
61785;SDS011;47692;53.714;11.372;2023-10-19T09:11:42;10.98;;;6.68;;
61785;SDS011;47692;53.714;11.372;2023-10-19T09:14:08;12.70;;;6.82;;
61785;SDS011;47692;53.714;11.372;2023-10-19T09:16:34;14.35;;;7.88;;
61785;SDS011;47692;53.714;11.372;2023-10-19T09:19:02;14.13;;;6.72;;
61785;SDS011;47692;53.714;11.372;2023-10-19T09:21:27;12.27;;;6.10;;
61785;SDS011;47692;53.714;11.372;2023-10-19T09:23:54;14.50;;;6.85;;
61785;SDS011;47692;53.714;11.372;2023-10-19T09:26:21;13.32;;;7.00;;
61785;SDS011;47692;53.714;11.372;2023-10-19T09:28:47;13.35;;;6.50;;
61785;SDS011;47692;53.714;11.372;2023-10-19T09:31:14;16.80;;;6.63;;
61785;SDS011;47692;53.714;11.372;2023-10-19T09:33:41;14.75;;;6.80;;
61785;SDS011;47692;53.714;11.372;2023-10-19T09:36:09;11.80;;;6.63;;
61785;SDS011;47692;53.714;11.372;2023-10-19T09:38:48;12.57;;;6.75;;
61785;SDS011;47692;53.714;11.372;2023-10-19T09:41:19;12.88;;;6.60;;
61785;SDS011;47692;53.714;11.372;2023-10-19T09:43:47;14.75;;;7.07;;
61785;SDS011;47692;53.714;11.372;2023-10-19T09:48:47;14.30;;;6.68;;
61785;SDS011;47692;53.714;11.372;2023-10-19T09:51:13;12.70;;;7.00;;
61785;SDS011;47692;53.714;11.372;2023-10-19T09:53:41;13.23;;;7.53;;
61785;SDS011;47692;53.714;11.372;2023-10-19T09:56:10;14.38;;;7.63;;
61785;SDS011;47692;53.714;11.372;2023-10-19T09:58:41;15.48;;;7.85;;
61785;SDS011;47692;53.714;11.372;2023-10-19T10:01:11;14.07;;;7.68;;
61785;SDS011;47692;53.714;11.372;2023-10-19T10:03:43;15.20;;;8.07;;
61785;SDS011;47692;53.714;11.372;2023-10-19T10:06:29;20.48;;;7.70;;
61785;SDS011;47692;53.714;11.372;2023-10-19T10:08:56;14.93;;;7.75;;
61785;SDS011;47692;53.714;11.372;2023-10-19T10:11:27;14.95;;;7.95;;
61785;SDS011;47692;53.714;11.372;2023-10-19T10:13:54;17.15;;;8.55;;
61785;SDS011;47692;53.714;11.372;2023-10-19T10:16:22;14.32;;;8.07;;
61785;SDS011;47692;53.714;11.372;2023-10-19T10:18:54;11.48;;;7.28;;
61785;SDS011;47692;53.714;11.372;2023-10-19T10:21:25;17.38;;;8.90;;
61785;SDS011;47692;53.714;11.372;2023-10-19T10:26:23;15.43;;;8.65;;
61785;SDS011;47692;53.714;11.372;2023-10-19T10:31:48;14.13;;;8.10;;
61785;SDS011;47692;53.714;11.372;2023-10-19T10:36:59;14.50;;;8.32;;
61785;SDS011;47692;53.714;11.372;2023-10-19T10:39:27;17.35;;;8.23;;
61785;SDS011;47692;53.714;11.372;2023-10-19T10:41:55;15.57;;;7.38;;
61785;SDS011;47692;53.714;11.372;2023-10-19T10:44:39;17.45;;;7.75;;
61785;SDS011;47692;53.714;11.372;2023-10-19T10:47:09;14.23;;;7.65;;
61785;SDS011;47692;53.714;11.372;2023-10-19T10:52:24;16.45;;;7.95;;
61785;SDS011;47692;53.714;11.372;2023-10-19T10:54:54;15.38;;;7.65;;
61785;SDS011;47692;53.714;11.372;2023-10-19T10:57:20;13.35;;;7.80;;
61785;SDS011;47692;53.714;11.372;2023-10-19T10:59:46;17.67;;;8.45;;
61785;SDS011;47692;53.714;11.372;2023-10-19T11:02:18;19.30;;;9.35;;
61785;SDS011;47692;53.714;11.372;2023-10-19T11:04:44;13.60;;;8.15;;
61785;SDS011;47692;53.714;11.372;2023-10-19T11:07:17;17.13;;;8.73;;
61785;SDS011;47692;53.714;11.372;2023-10-19T11:09:44;15.98;;;8.02;;
61785;SDS011;47692;53.714;11.372;2023-10-19T11:12:13;15.30;;;8.80;;
61785;SDS011;47692;53.714;11.372;2023-10-19T11:14:56;16.45;;;7.68;;
61785;SDS011;47692;53.714;11.372;2023-10-19T11:17:24;15.88;;;7.78;;
61785;SDS011;47692;53.714;11.372;2023-10-19T11:19:55;14.75;;;8.00;;
61785;SDS011;47692;53.714;11.372;2023-10-19T11:22:25;12.75;;;7.63;;
61785;SDS011;47692;53.714;11.372;2023-10-19T11:24:54;16.92;;;8.77;;
61785;SDS011;47692;53.714;11.372;2023-10-19T11:27:24;18.67;;;7.85;;
61785;SDS011;47692;53.714;11.372;2023-10-19T11:29:58;16.60;;;8.40;;
61785;SDS011;47692;53.714;11.372;2023-10-19T11:32:25;16.85;;;8.63;;
61785;SDS011;47692;53.714;11.372;2023-10-19T11:34:56;18.83;;;8.57;;
61785;SDS011;47692;53.714;11.372;2023-10-19T11:37:22;17.25;;;8.15;;
61785;SDS011;47692;53.714;11.372;2023-10-19T11:39:47;16.13;;;7.78;;
61785;SDS011;47692;53.714;11.372;2023-10-19T11:42:15;14.73;;;8.13;;
61785;SDS011;47692;53.714;11.372;2023-10-19T11:44:40;13.05;;;7.38;;
61785;SDS011;47692;53.714;11.372;2023-10-19T11:47:06;14.25;;;7.72;;
61785;SDS011;47692;53.714;11.372;2023-10-19T11:49:31;13.63;;;7.47;;
61785;SDS011;47692;53.714;11.372;2023-10-19T11:51:56;14.25;;;7.93;;
61785;SDS011;47692;53.714;11.372;2023-10-19T11:54:22;13.15;;;7.72;;
61785;SDS011;47692;53.714;11.372;2023-10-19T11:56:47;16.13;;;7.40;;
61785;SDS011;47692;53.714;11.372;2023-10-19T11:59:14;13.85;;;7.70;;
61785;SDS011;47692;53.714;11.372;2023-10-19T12:01:40;14.43;;;7.43;;
61785;SDS011;47692;53.714;11.372;2023-10-19T12:04:06;16.67;;;8.77;;
61785;SDS011;47692;53.714;11.372;2023-10-19T12:06:31;14.43;;;7.75;;
61785;SDS011;47692;53.714;11.372;2023-10-19T12:08:56;18.35;;;8.88;;
61785;SDS011;47692;53.714;11.372;2023-10-19T12:11:24;15.35;;;8.55;;
61785;SDS011;47692;53.714;11.372;2023-10-19T12:13:50;25.13;;;10.02;;
61785;SDS011;47692;53.714;11.372;2023-10-19T12:16:16;19.25;;;9.02;;
61785;SDS011;47692;53.714;11.372;2023-10-19T12:18:42;14.38;;;8.13;;
61785;SDS011;47692;53.714;11.372;2023-10-19T12:21:08;14.55;;;8.48;;
61785;SDS011;47692;53.714;11.372;2023-10-19T12:23:38;17.38;;;8.55;;
61785;SDS011;47692;53.714;11.372;2023-10-19T12:26:05;16.40;;;8.68;;
61785;SDS011;47692;53.714;11.372;2023-10-19T12:28:36;22.30;;;10.15;;
61785;SDS011;47692;53.714;11.372;2023-10-19T12:31:05;18.20;;;8.52;;
61785;SDS011;47692;53.714;11.372;2023-10-19T12:33:33;18.08;;;9.43;;
61785;SDS011;47692;53.714;11.372;2023-10-19T12:35:59;16.58;;;8.63;;
61785;SDS011;47692;53.714;11.372;2023-10-19T12:38:24;16.30;;;9.10;;
61785;SDS011;47692;53.714;11.372;2023-10-19T12:40:50;16.08;;;8.25;;
61785;SDS011;47692;53.714;11.372;2023-10-19T12:43:16;17.90;;;8.35;;
61785;SDS011;47692;53.714;11.372;2023-10-19T12:45:47;13.73;;;7.75;;
61785;SDS011;47692;53.714;11.372;2023-10-19T12:48:15;15.50;;;8.73;;
61785;SDS011;47692;53.714;11.372;2023-10-19T12:50:42;17.75;;;8.85;;
61785;SDS011;47692;53.714;11.372;2023-10-19T12:53:07;15.05;;;8.05;;
61785;SDS011;47692;53.714;11.372;2023-10-19T12:55:33;13.98;;;8.18;;
61785;SDS011;47692;53.714;11.372;2023-10-19T12:57:59;17.70;;;8.85;;
61785;SDS011;47692;53.714;11.372;2023-10-19T13:00:35;15.30;;;8.55;;
61785;SDS011;47692;53.714;11.372;2023-10-19T13:03:04;14.32;;;8.95;;
61785;SDS011;47692;53.714;11.372;2023-10-19T13:05:36;17.48;;;8.80;;
61785;SDS011;47692;53.714;11.372;2023-10-19T13:08:05;13.43;;;8.45;;
61785;SDS011;47692;53.714;11.372;2023-10-19T13:10:35;18.75;;;9.50;;
61785;SDS011;47692;53.714;11.372;2023-10-19T13:13:08;16.00;;;8.43;;
61785;SDS011;47692;53.714;11.372;2023-10-19T13:15:37;16.77;;;9.10;;
61785;SDS011;47692;53.714;11.372;2023-10-19T13:18:03;18.65;;;9.25;;
61785;SDS011;47692;53.714;11.372;2023-10-19T13:20:31;15.70;;;8.23;;
61785;SDS011;47692;53.714;11.372;2023-10-19T13:23:03;17.13;;;8.93;;
61785;SDS011;47692;53.714;11.372;2023-10-19T13:25:31;17.20;;;9.90;;
61785;SDS011;47692;53.714;11.372;2023-10-19T13:28:17;18.95;;;9.93;;
61785;SDS011;47692;53.714;11.372;2023-10-19T13:30:45;19.60;;;9.20;;
61785;SDS011;47692;53.714;11.372;2023-10-19T13:33:12;18.58;;;9.98;;
61785;SDS011;47692;53.714;11.372;2023-10-19T13:35:39;17.13;;;8.80;;
61785;SDS011;47692;53.714;11.372;2023-10-19T13:38:06;18.80;;;9.20;;
61785;SDS011;47692;53.714;11.372;2023-10-19T13:40:33;14.98;;;8.98;;
61785;SDS011;47692;53.714;11.372;2023-10-19T13:42:59;15.07;;;8.93;;
61785;SDS011;47692;53.714;11.372;2023-10-19T13:45:25;16.55;;;8.88;;
61785;SDS011;47692;53.714;11.372;2023-10-19T13:47:51;17.80;;;9.05;;
61785;SDS011;47692;53.714;11.372;2023-10-19T13:50:21;17.55;;;9.23;;
61785;SDS011;47692;53.714;11.372;2023-10-19T13:52:48;18.90;;;9.60;;
61785;SDS011;47692;53.714;11.372;2023-10-19T13:55:17;17.73;;;9.23;;
61785;SDS011;47692;53.714;11.372;2023-10-19T13:57:44;16.90;;;9.10;;
61785;SDS011;47692;53.714;11.372;2023-10-19T14:00:10;15.70;;;8.65;;
61785;SDS011;47692;53.714;11.372;2023-10-19T14:02:44;19.42;;;8.85;;
61785;SDS011;47692;53.714;11.372;2023-10-19T14:05:11;18.80;;;9.98;;
61785;SDS011;47692;53.714;11.372;2023-10-19T14:07:36;19.73;;;9.82;;
61785;SDS011;47692;53.714;11.372;2023-10-19T14:10:04;18.00;;;9.40;;
61785;SDS011;47692;53.714;11.372;2023-10-19T14:12:31;16.90;;;9.65;;
61785;SDS011;47692;53.714;11.372;2023-10-19T14:14:57;16.92;;;8.90;;
61785;SDS011;47692;53.714;11.372;2023-10-19T14:17:22;18.48;;;9.18;;
61785;SDS011;47692;53.714;11.372;2023-10-19T14:19:47;16.42;;;8.98;;
61785;SDS011;47692;53.714;11.372;2023-10-19T14:22:13;17.88;;;9.32;;
61785;SDS011;47692;53.714;11.372;2023-10-19T14:24:38;16.20;;;8.77;;
61785;SDS011;47692;53.714;11.372;2023-10-19T14:27:04;16.77;;;8.65;;
61785;SDS011;47692;53.714;11.372;2023-10-19T14:29:29;18.65;;;9.27;;
61785;SDS011;47692;53.714;11.372;2023-10-19T14:31:54;16.73;;;9.23;;
61785;SDS011;47692;53.714;11.372;2023-10-19T14:34:19;16.45;;;8.20;;
61785;SDS011;47692;53.714;11.372;2023-10-19T14:36:45;16.08;;;8.60;;
61785;SDS011;47692;53.714;11.372;2023-10-19T14:39:10;15.88;;;9.20;;
61785;SDS011;47692;53.714;11.372;2023-10-19T14:41:38;20.48;;;11.10;;
61785;SDS011;47692;53.714;11.372;2023-10-19T14:44:05;19.88;;;9.45;;